Terminal Aerodrome Forecast
Issued by NWS Wilmington, OH

Home | Current Version | Previous Version | Text Only | Print | Product List | Glossary On
Versions: 1 2 3 4 5 6 7 8 9 10 11 12 13 14 15 16
000
FTUS41 KILN 250200 AAA
TAFCMH
TAF AMD
KCMH 250251Z 2503/2524 16008KT P6SM BKN200
     FM251300 19016G22KT P6SM SCT050 BKN080
     FM252100 22017G26KT P6SM VCSH BKN050=

USA.gov is the U.S. government's official web portal to all federal, state and local government web resources and services.